»·PEaware :: WAT234 KSAN-KSFO

WAT234 :: KSAN-KSFO

FLIGHT INFORMATION

Flight Status: Arrived
Operator: Unknown
More flights by this operator :: More flights under this callsign
Pilot: Eduardo Elias G. (24838)
Aircraft: DASSAULT AVIATION FALCON 50
(FA50)
More flights by this aircraft type
Origin: KSAN San Diego Intl-Lindbergh
United States
Destination: KSFO San Francisco Intl
United States
More flights between these airports :: More routes between these airports
Route: PADRZ2 IKAYE RIZIN SPLNT STOKD SERFR SERFR4
File this flight plan on PilotEdge
Remarks:
Altitude:
(Current/Filed)
43,000ft
Speed:
(Current/Filed)
455kts
Departed: 27-Jul-20 10:17 PM
Arrived: 27-Jul-20 11:26 PM
Distance/Time
Traveled:
389nm/1:08
Distance/Time
To Go:
Arrived

Flight Plot

Page will automatically refresh every two minutes.


Map Options




Map Legend


Flown Route
Filed Route
Departure Airport
Arrival Airport
Navaid (VOR, NDB)
Fix

Horizontal Profiles

Position Reports

Time Latitude Longitude Heading Altitude Ground
Speed
27-Jul-20 21:39 32.734572 -117.179519 14 18ft 0kts
27-Jul-20 21:40 32.734572 -117.179519 14 18ft 0kts
27-Jul-20 21:41 32.734572 -117.179519 14 18ft 0kts
27-Jul-20 21:42 32.734572 -117.179519 14 18ft 0kts
27-Jul-20 21:43 32.734572 -117.179519 14 18ft 0kts
27-Jul-20 21:44 32.734572 -117.179519 14 18ft 0kts
27-Jul-20 21:45 32.734572 -117.179519 14 18ft 0kts
27-Jul-20 21:45 32.734572 -117.179519 14 18ft 0kts
27-Jul-20 21:47 32.734572 -117.179519 14 18ft 0kts
27-Jul-20 21:48 32.734572 -117.179519 14 18ft 0kts
27-Jul-20 21:48 32.734572 -117.179519 14 18ft 0kts
27-Jul-20 21:50 32.734572 -117.179519 14 18ft 0kts
27-Jul-20 21:50 32.734572 -117.179519 14 18ft 0kts
27-Jul-20 21:51 32.734572 -117.179519 14 18ft 0kts
27-Jul-20 21:53 32.734572 -117.179519 14 18ft 0kts
27-Jul-20 21:53 32.734572 -117.179519 14 18ft 0kts
27-Jul-20 21:54 32.734572 -117.179519 14 18ft 0kts
27-Jul-20 21:55 32.734572 -117.179519 14 18ft 0kts
27-Jul-20 21:56 32.734572 -117.179519 14 18ft 0kts
27-Jul-20 21:57 32.734572 -117.179519 14 18ft 0kts
27-Jul-20 21:58 32.734572 -117.179519 14 18ft 0kts
27-Jul-20 21:59 32.734039 -117.179362 14 18ft 2kts
27-Jul-20 22:00 32.733352 -117.179553 9 18ft 0kts
27-Jul-20 22:01 32.733352 -117.179553 9 18ft 0kts
27-Jul-20 22:02 32.733352 -117.179553 9 18ft 0kts
27-Jul-20 22:03 32.733352 -117.179553 9 18ft 0kts
27-Jul-20 22:04 32.733352 -117.179553 9 18ft 0kts
27-Jul-20 22:05 32.733352 -117.179553 9 18ft 0kts
27-Jul-20 22:06 32.733352 -117.179553 9 18ft 0kts
27-Jul-20 22:07 32.733354 -117.179553 9 18ft 0kts
27-Jul-20 22:08 32.733357 -117.179552 9 18ft 0kts
27-Jul-20 22:09 32.733360 -117.179552 9 18ft 0kts
27-Jul-20 22:10 32.733537 -117.179539 343 18ft 2kts
27-Jul-20 22:11 32.733680 -117.179465 189 18ft 0kts
27-Jul-20 22:12 32.733670 -117.179467 189 18ft 0kts
27-Jul-20 22:13 32.733493 -117.179506 191 18ft 2kts
27-Jul-20 22:14 32.732136 -117.179091 104 18ft 8kts
27-Jul-20 22:15 32.731260 -117.175770 136 18ft 7kts
27-Jul-20 22:16 32.730834 -117.178507 286 19ft 79kts
27-Jul-20 22:17 32.746963 -117.224374 305 2797ft 164kts
27-Jul-20 22:18 32.773563 -117.270397 301 5356ft 184kts
27-Jul-20 22:19 32.807524 -117.330849 306 7138ft 239kts
27-Jul-20 22:20 32.849183 -117.395368 305 9509ft 251kts
27-Jul-20 22:21 32.892035 -117.461899 306 11694ft 256kts
27-Jul-20 22:22 32.936713 -117.531396 306 14427ft 274kts
27-Jul-20 22:23 32.983839 -117.604876 306 17804ft 283kts
27-Jul-20 22:24 33.031708 -117.679660 305 20877ft 282kts
27-Jul-20 22:25 33.083995 -117.750114 317 23376ft 287kts
27-Jul-20 22:26 33.145468 -117.812708 316 25505ft 298kts
27-Jul-20 22:27 33.206570 -117.875627 312 27772ft 305kts
27-Jul-20 22:28 33.266809 -117.948638 310 29820ft 312kts
27-Jul-20 22:29 33.328236 -118.022267 310 31561ft 320kts
27-Jul-20 22:30 33.390377 -118.096668 309 33098ft 328kts
27-Jul-20 22:31 33.454935 -118.174104 309 34460ft 335kts
27-Jul-20 22:32 33.517585 -118.249413 309 35597ft 342kts
27-Jul-20 22:33 33.585551 -118.331301 309 36669ft 349kts
27-Jul-20 22:34 33.651845 -118.411355 309 37598ft 354kts
27-Jul-20 22:35 33.721793 -118.496025 309 38457ft 360kts
27-Jul-20 22:36 33.792797 -118.582188 308 39236ft 364kts
27-Jul-20 22:37 33.864659 -118.669615 309 39922ft 369kts
27-Jul-20 22:38 33.937252 -118.758149 309 40545ft 373kts
27-Jul-20 22:39 34.005351 -118.841413 309 41068ft 377kts
27-Jul-20 22:40 34.076623 -118.928776 309 41565ft 381kts
27-Jul-20 22:41 34.148430 -119.022933 301 42028ft 379kts
27-Jul-20 22:42 34.204977 -119.130364 297 42444ft 380kts
27-Jul-20 22:43 34.261119 -119.239546 297 42832ft 383kts
27-Jul-20 22:44 34.317653 -119.349800 297 42972ft 392kts
27-Jul-20 22:45 34.371966 -119.456024 297 42968ft 402kts
27-Jul-20 22:46 34.439328 -119.567218 309 42962ft 419kts
27-Jul-20 22:47 34.520643 -119.667324 309 42967ft 428kts
27-Jul-20 22:48 34.602998 -119.768937 309 42971ft 434kts
27-Jul-20 22:49 34.688331 -119.874519 309 42966ft 440kts
27-Jul-20 22:50 34.768069 -119.973475 309 42985ft 444kts
27-Jul-20 22:51 34.854815 -120.081457 309 42989ft 448kts
27-Jul-20 22:52 34.938686 -120.186194 309 42998ft 451kts
27-Jul-20 22:53 35.026307 -120.295959 309 42998ft 452kts
27-Jul-20 22:54 35.114761 -120.405545 312 42999ft 454kts
27-Jul-20 22:55 35.208598 -120.509111 312 42999ft 455kts
27-Jul-20 22:56 35.297590 -120.608588 312 42999ft 455kts
27-Jul-20 22:57 35.390765 -120.713538 312 42999ft 455kts
27-Jul-20 22:58 35.481057 -120.813644 315 42997ft 457kts
27-Jul-20 22:59 35.582113 -120.909393 317 42993ft 459kts
27-Jul-20 23:00 35.684046 -121.004551 317 42988ft 460kts
27-Jul-20 23:01 35.786052 -121.099794 317 42971ft 460kts
27-Jul-20 23:02 35.887514 -121.194762 317 42834ft 452kts
27-Jul-20 23:03 35.983714 -121.285133 316 40951ft 451kts
27-Jul-20 23:04 36.083222 -121.375110 319 38283ft 438kts
27-Jul-20 23:05 36.190086 -121.459572 320 35302ft 471kts
27-Jul-20 23:06 36.302143 -121.547411 321 32720ft 476kts
27-Jul-20 23:07 36.413364 -121.634493 323 31018ft 473kts
27-Jul-20 23:08 36.539352 -121.688967 338 29355ft 484kts
27-Jul-20 23:09 36.634160 -121.791061 294 27530ft 434kts
27-Jul-20 23:10 36.691010 -121.908391 327 24578ft 393kts
27-Jul-20 23:11 36.797966 -121.927646 349 21621ft 383kts
27-Jul-20 23:12 36.901194 -121.944839 350 18627ft 355kts
27-Jul-20 23:13 36.987730 -121.967082 341 15024ft 271kts
27-Jul-20 23:14 37.055894 -121.993654 342 11315ft 262kts
27-Jul-20 23:15 37.130998 -122.022988 342 8488ft 282kts
27-Jul-20 23:16 37.203660 -122.051421 341 6930ft 255kts
27-Jul-20 23:17 37.270728 -122.077734 341 6428ft 254kts
27-Jul-20 23:18 37.338653 -122.104478 341 6013ft 253kts
27-Jul-20 23:19 37.405386 -122.129697 343 5459ft 259kts
27-Jul-20 23:20 37.476929 -122.153522 342 4092ft 269kts
27-Jul-20 23:21 37.543687 -122.189184 307 2906ft 252kts
27-Jul-20 23:22 37.572732 -122.263145 294 1796ft 223kts
27-Jul-20 23:23 37.595696 -122.315601 296 830ft 141kts
27-Jul-20 23:24 37.611893 -122.353271 299 120ft 111kts
27-Jul-20 23:25 37.620238 -122.373021 297 16ft 33kts
27-Jul-20 23:26 37.624116 -122.382341 296 16ft 22kts
27-Jul-20 23:27 37.626874 -122.382650 21 16ft 10kts
27-Jul-20 23:28 37.628301 -122.382998 255 16ft 5kts
27-Jul-20 23:29 37.628207 -122.383449 288 16ft 0kts
27-Jul-20 23:30 37.628208 -122.383451 288 16ft 0kts
27-Jul-20 23:31 37.628208 -122.383451 288 16ft 0kts
27-Jul-20 23:33 37.628208 -122.383451 288 16ft 0kts

Navigation Log

Ident Type
Flight plan parsing failed, navigation log unavailable